createdAt,value
2024-04-12T00:01:21.604Z,4.67
2024-04-12T00:03:49.533Z,5.10
2024-04-12T00:06:19.658Z,4.60
2024-04-12T00:08:48.267Z,4.83
2024-04-12T00:11:20.088Z,5.33
2024-04-12T00:13:48.407Z,5.87
2024-04-12T00:16:25.210Z,5.30
2024-04-12T00:19:08.035Z,5.23
2024-04-12T00:21:38.950Z,5.07
2024-04-12T00:24:07.508Z,5.40
2024-04-12T00:26:37.190Z,5.07
2024-04-12T00:29:08.542Z,4.93
2024-04-12T00:31:43.606Z,5.70
2024-04-12T00:34:10.995Z,5.23
2024-04-12T00:36:43.453Z,5.30
2024-04-12T00:39:21.266Z,5.47
2024-04-12T00:41:51.293Z,5.60
2024-04-12T00:44:18.388Z,5.13
2024-04-12T00:46:52.853Z,5.17
2024-04-12T00:49:20.119Z,5.20
2024-04-12T00:51:51.399Z,5.30
2024-04-12T00:54:18.518Z,5.77
2024-04-12T00:56:52.052Z,6.93
2024-04-12T00:59:21.422Z,5.83
2024-04-12T01:01:57.160Z,5.77
2024-04-12T01:04:24.866Z,6.07
2024-04-12T01:06:54.585Z,5.50
2024-04-12T01:09:22.647Z,5.33
2024-04-12T01:11:53.001Z,6.00
2024-04-12T01:14:20.121Z,5.20
2024-04-12T01:16:55.944Z,5.53
2024-04-12T01:19:28.272Z,5.37
2024-04-12T01:21:57.918Z,4.87
2024-04-12T01:24:25.237Z,5.20
2024-04-12T01:26:57.652Z,5.30
2024-04-12T01:29:25.265Z,5.30
2024-04-12T01:31:55.537Z,5.40
2024-04-12T01:34:22.641Z,5.80
2024-04-12T01:36:54.073Z,5.30
2024-04-12T01:39:22.554Z,5.03
2024-04-12T01:41:53.452Z,5.47
2024-04-12T01:44:25.735Z,5.10
2024-04-12T01:46:58.252Z,5.93
2024-04-12T01:49:25.548Z,5.17
2024-04-12T01:51:57.444Z,5.27
2024-04-12T01:54:24.861Z,5.37
2024-04-12T01:56:54.525Z,5.80
2024-04-12T01:59:24.446Z,5.73
2024-04-12T02:01:54.712Z,4.60
2024-04-12T02:04:23.039Z,5.13
2024-04-12T02:06:54.263Z,5.60
2024-04-12T02:09:22.054Z,5.43
2024-04-12T02:11:54.709Z,5.90
2024-04-12T02:14:24.529Z,5.13
2024-04-12T02:16:54.369Z,6.00
2024-04-12T02:19:23.495Z,5.83
2024-04-12T02:21:53.407Z,5.70
2024-04-12T02:24:20.467Z,5.30
2024-04-12T02:26:50.946Z,6.10
2024-04-12T02:29:22.804Z,5.67
2024-04-12T02:31:56.769Z,6.00
2024-04-12T02:34:25.670Z,6.07
2024-04-12T02:37:02.800Z,5.77
2024-04-12T02:39:29.872Z,5.50
2024-04-12T02:42:00.251Z,5.60
2024-04-12T02:44:28.114Z,6.67
2024-04-12T02:47:00.437Z,6.13
2024-04-12T02:49:28.453Z,5.70
2024-04-12T02:52:01.082Z,6.20
2024-04-12T02:54:29.094Z,6.70
2024-04-12T02:56:58.864Z,5.90
2024-04-12T02:59:28.518Z,6.47
2024-04-12T03:02:00.850Z,5.97
2024-04-12T03:04:28.999Z,6.10
2024-04-12T03:06:58.696Z,6.60
2024-04-12T03:09:28.626Z,5.83
2024-04-12T03:12:01.847Z,5.30
2024-04-12T03:14:31.727Z,5.80
2024-04-12T03:17:05.543Z,5.50
2024-04-12T03:19:33.016Z,5.50
2024-04-12T03:22:02.672Z,5.10
2024-04-12T03:24:29.701Z,5.63
2024-04-12T03:26:59.763Z,5.13
2024-04-12T03:29:29.139Z,5.50
2024-04-12T03:31:58.782Z,5.47
2024-04-12T03:34:28.769Z,4.93
2024-04-12T03:37:17.330Z,4.90
2024-04-12T03:39:48.592Z,5.23
2024-04-12T03:42:19.815Z,4.90
2024-04-12T03:44:46.931Z,5.23
2024-04-12T03:47:16.595Z,5.20
2024-04-12T03:49:48.657Z,5.73
2024-04-12T03:52:21.068Z,6.03
2024-04-12T03:54:49.346Z,6.77
2024-04-12T03:57:20.111Z,5.60
2024-04-12T03:59:47.884Z,5.07
2024-04-12T04:02:20.205Z,4.87
2024-04-12T04:05:12.886Z,5.23
2024-04-12T04:07:40.715Z,6.47
2024-04-12T04:10:14.410Z,5.50
2024-04-12T04:12:46.233Z,5.60
2024-04-12T04:15:16.061Z,4.60
2024-04-12T04:17:48.619Z,5.77
2024-04-12T04:20:21.600Z,4.93
2024-04-12T04:22:50.959Z,5.43
2024-04-12T04:25:22.299Z,4.97
2024-04-12T04:27:49.364Z,4.57
2024-04-12T04:30:26.652Z,5.20
2024-04-12T04:32:54.152Z,5.20
2024-04-12T04:35:28.503Z,5.23
2024-04-12T04:37:57.391Z,5.47
2024-04-12T04:40:27.147Z,5.37
2024-04-12T04:42:56.379Z,5.20
2024-04-12T04:45:32.724Z,5.10
2024-04-12T04:48:00.003Z,6.40
2024-04-12T04:50:34.650Z,5.17
2024-04-12T04:53:03.913Z,6.90
2024-04-12T04:55:33.580Z,4.83
2024-04-12T04:58:01.537Z,4.40
2024-04-12T05:00:42.060Z,5.40
2024-04-12T05:03:09.364Z,6.00
2024-04-12T05:05:43.764Z,5.80
2024-04-12T05:08:11.055Z,4.40
2024-04-12T05:10:41.091Z,4.90
2024-04-12T05:13:08.566Z,5.33
2024-04-12T05:15:53.573Z,4.93
2024-04-12T05:18:21.336Z,5.20
2024-04-12T05:20:53.846Z,5.30
2024-04-12T05:23:22.093Z,5.87
2024-04-12T05:25:52.547Z,5.20
2024-04-12T05:28:20.693Z,5.70
2024-04-12T05:30:55.962Z,5.20
2024-04-12T05:33:26.199Z,4.17
2024-04-12T05:35:58.604Z,4.30
2024-04-12T05:38:26.219Z,4.33
2024-04-12T05:40:58.707Z,5.13
2024-04-12T05:43:26.391Z,5.80
2024-04-12T05:45:56.150Z,5.63
2024-04-12T05:48:24.696Z,6.00
2024-04-12T05:50:57.121Z,5.30
2024-04-12T05:53:32.545Z,7.07
2024-04-12T05:56:20.074Z,6.80
2024-04-12T05:58:52.559Z,5.80
2024-04-12T06:01:20.360Z,6.10
2024-04-12T06:03:55.982Z,5.70
2024-04-12T06:06:24.031Z,5.63
2024-04-12T06:08:59.869Z,5.27
2024-04-12T06:11:27.219Z,5.83
2024-04-12T06:13:57.326Z,6.20
2024-04-12T06:16:25.200Z,7.07
2024-04-12T06:18:59.522Z,6.87
2024-04-12T06:21:31.974Z,7.10
2024-04-12T06:24:10.813Z,5.87
2024-04-12T06:26:41.224Z,6.87
2024-04-12T06:29:22.768Z,6.90
2024-04-12T06:31:59.484Z,6.47
2024-04-12T06:34:26.847Z,8.60
2024-04-12T06:37:06.960Z,6.40
2024-04-12T06:39:36.921Z,6.80
2024-04-12T06:42:10.245Z,7.50
2024-04-12T06:44:38.006Z,6.63
2024-04-12T06:47:10.847Z,6.60
2024-04-12T06:49:38.656Z,6.40
2024-04-12T06:52:16.080Z,5.80
2024-04-12T06:54:46.430Z,6.30
2024-04-12T06:57:19.003Z,5.73
2024-04-12T06:59:48.775Z,5.80
2024-04-12T07:02:25.027Z,6.22
2024-04-12T07:04:53.475Z,6.03
2024-04-12T07:07:24.104Z,6.57
2024-04-12T07:09:59.389Z,5.77
2024-04-12T07:12:32.247Z,5.40
2024-04-12T07:14:59.359Z,5.50
2024-04-12T07:17:30.285Z,5.70
2024-04-12T07:19:58.995Z,5.80
2024-04-12T07:22:35.882Z,5.60
2024-04-12T07:25:08.400Z,5.00
2024-04-12T07:27:42.463Z,5.90
2024-04-12T07:30:10.118Z,6.20
2024-04-12T07:32:39.991Z,5.23
2024-04-12T07:35:24.296Z,5.30
2024-04-12T07:37:59.153Z,5.53
2024-04-12T07:40:36.126Z,4.53
2024-04-12T07:43:10.913Z,4.43
2024-04-12T07:45:40.112Z,5.00
2024-04-12T07:48:30.638Z,5.40
2024-04-12T07:51:02.840Z,5.23
2024-04-12T07:53:37.161Z,5.00
2024-04-12T07:56:16.227Z,5.20
2024-04-12T07:59:02.629Z,4.90
2024-04-12T08:01:31.832Z,4.88
2024-04-12T08:04:07.252Z,4.70
2024-04-12T08:06:38.560Z,4.50
2024-04-12T08:09:22.872Z,5.00
2024-04-12T08:11:53.846Z,4.03
2024-04-12T08:14:23.942Z,4.80
2024-04-12T08:16:54.965Z,4.37
2024-04-12T08:19:39.924Z,5.60
2024-04-12T08:22:08.232Z,5.00
2024-04-12T08:24:42.415Z,4.00
2024-04-12T08:27:12.473Z,4.73
2024-04-12T08:29:42.226Z,4.70
2024-04-12T08:32:14.676Z,4.57
2024-04-12T08:34:45.556Z,5.30
2024-04-12T08:37:17.818Z,4.60
2024-04-12T08:39:53.964Z,4.00
2024-04-12T08:42:30.400Z,4.70
2024-04-12T08:45:14.055Z,5.03
2024-04-12T08:47:53.039Z,4.50
2024-04-12T08:50:25.123Z,4.47
2024-04-12T08:52:54.711Z,4.37
2024-04-12T08:55:30.566Z,4.87
2024-04-12T08:58:02.867Z,4.77
2024-04-12T09:00:35.012Z,6.03
2024-04-12T09:03:04.542Z,5.40
2024-04-12T09:05:37.426Z,5.10
2024-04-12T09:08:09.107Z,4.27
2024-04-12T09:10:40.672Z,4.80
2024-04-12T09:13:16.297Z,5.13
2024-04-12T09:15:47.417Z,5.40
2024-04-12T09:18:17.322Z,5.70
2024-04-12T09:20:54.031Z,5.90
2024-04-12T09:23:34.106Z,5.63
2024-04-12T09:26:23.001Z,5.57
2024-04-12T09:29:03.141Z,5.63
2024-04-12T09:31:50.382Z,5.00
2024-04-12T09:34:34.118Z,6.37
2024-04-12T09:37:25.871Z,7.17
2024-04-12T09:40:05.366Z,6.10
2024-04-12T09:42:46.347Z,5.70
2024-04-12T09:45:20.879Z,6.07
2024-04-12T09:48:07.598Z,6.47
2024-04-12T09:51:09.119Z,6.10
2024-04-12T09:53:54.767Z,5.80
2024-04-12T09:56:41.310Z,6.90
2024-04-12T09:59:32.940Z,8.30
2024-04-12T10:02:37.808Z,6.53
2024-04-12T10:05:27.861Z,7.10
2024-04-12T10:08:17.138Z,5.63
2024-04-12T10:11:05.262Z,7.33
2024-04-12T10:13:53.023Z,6.80
2024-04-12T10:16:38.595Z,6.90
2024-04-12T10:19:33.299Z,7.70
2024-04-12T10:22:27.687Z,6.60
2024-04-12T10:25:13.781Z,7.73
2024-04-12T10:28:00.310Z,8.00
2024-04-12T10:30:46.405Z,7.90
2024-04-12T10:33:32.668Z,6.70
2024-04-12T10:36:21.949Z,7.13
2024-04-12T10:38:56.258Z,7.07
2024-04-12T10:41:28.183Z,7.03
2024-04-12T10:43:59.068Z,7.13
2024-04-12T10:46:28.764Z,8.23
2024-04-12T10:48:57.172Z,7.10
2024-04-12T10:51:30.501Z,6.80
2024-04-12T10:53:58.451Z,7.80
2024-04-12T10:56:30.803Z,7.87
2024-04-12T10:59:00.702Z,6.83
2024-04-12T11:01:31.379Z,7.50
2024-04-12T11:03:59.538Z,7.60
2024-04-12T11:06:35.354Z,7.40
2024-04-12T11:09:05.782Z,7.13
2024-04-12T11:11:39.542Z,9.00
2024-04-12T11:14:16.873Z,8.33
2024-04-12T11:17:06.870Z,7.80
2024-04-12T11:19:54.740Z,8.10
2024-04-12T11:22:52.702Z,7.70
2024-04-12T11:25:38.091Z,7.90
2024-04-12T11:28:24.282Z,8.57
2024-04-12T11:31:17.107Z,8.53
2024-04-12T11:34:04.260Z,8.63
2024-04-12T11:36:42.465Z,8.07
2024-04-12T11:39:19.162Z,7.90
2024-04-12T11:41:47.160Z,8.07
2024-04-12T11:44:19.355Z,8.77
2024-04-12T11:46:47.159Z,7.90
2024-04-12T11:49:26.302Z,8.57
2024-04-12T11:51:56.754Z,7.20
2024-04-12T11:54:31.343Z,7.73
2024-04-12T11:57:00.490Z,7.23
2024-04-12T11:59:31.382Z,6.90
2024-04-12T12:02:00.430Z,7.77
2024-04-12T12:04:30.569Z,7.63
2024-04-12T12:07:00.620Z,7.70
2024-04-12T12:09:37.747Z,7.80
2024-04-12T12:12:11.518Z,7.20
2024-04-12T12:14:42.615Z,7.80
2024-04-12T12:17:11.047Z,8.00
2024-04-12T12:19:41.053Z,7.70
2024-04-12T12:22:11.461Z,8.00
2024-04-12T12:24:43.835Z,7.17
2024-04-12T12:27:11.098Z,8.63
2024-04-12T12:29:43.542Z,8.73
2024-04-12T12:32:10.968Z,8.47
2024-04-12T12:34:42.952Z,8.77
2024-04-12T12:37:10.801Z,7.30
2024-04-12T12:39:43.141Z,9.30
2024-04-12T12:42:11.513Z,8.67
2024-04-12T12:44:41.588Z,7.17
2024-04-12T12:47:09.293Z,7.83
2024-04-12T12:49:48.394Z,7.60
2024-04-12T12:52:16.092Z,8.80
2024-04-12T12:54:48.886Z,8.30
2024-04-12T12:57:16.466Z,8.77
2024-04-12T12:59:46.436Z,8.27
2024-04-12T13:02:15.803Z,8.30
2024-04-12T13:04:47.835Z,8.17
2024-04-12T13:07:17.635Z,7.97
2024-04-12T13:09:55.823Z,8.43
2024-04-12T13:12:30.070Z,7.63
2024-04-12T13:15:01.761Z,6.67
2024-04-12T13:17:28.994Z,6.80
2024-04-12T13:19:58.875Z,6.00
2024-04-12T13:22:25.941Z,6.70
2024-04-12T13:24:58.194Z,6.27
2024-04-12T13:27:27.112Z,6.03
2024-04-12T13:29:56.760Z,5.50
2024-04-12T13:32:24.468Z,5.30
2024-04-12T13:34:55.524Z,4.93
2024-04-12T13:37:26.357Z,4.63
2024-04-12T13:39:58.709Z,5.43
2024-04-12T13:42:26.481Z,5.17
2024-04-12T13:45:12.136Z,5.00
2024-04-12T13:47:57.788Z,4.60
2024-04-12T13:50:43.328Z,4.40
2024-04-12T13:53:13.298Z,4.17
2024-04-12T13:55:47.968Z,3.73
2024-04-12T13:58:15.068Z,4.33
2024-04-12T14:00:50.276Z,3.50
2024-04-12T14:03:25.184Z,4.77
2024-04-12T14:05:58.169Z,3.87
2024-04-12T14:08:29.872Z,5.03
2024-04-12T14:11:03.594Z,3.47
2024-04-12T14:13:30.728Z,4.33
2024-04-12T14:16:02.347Z,3.90
2024-04-12T14:18:32.174Z,3.60
2024-04-12T14:20:59.327Z,3.10
2024-04-12T14:23:30.740Z,2.97
2024-04-12T14:26:00.777Z,2.90
2024-04-12T14:28:30.437Z,3.00
2024-04-12T14:30:57.565Z,3.00
2024-04-12T14:33:29.577Z,2.63
2024-04-12T14:35:56.771Z,3.50
2024-04-12T14:38:26.457Z,2.40
2024-04-12T14:40:53.841Z,2.33
2024-04-12T14:43:26.106Z,2.43
2024-04-12T14:45:53.526Z,3.10
2024-04-12T14:48:23.318Z,2.30
2024-04-12T14:50:50.842Z,1.90
2024-04-12T14:53:20.803Z,2.43
2024-04-12T14:55:48.470Z,2.43
2024-04-12T14:58:18.302Z,2.23
2024-04-12T15:00:49.610Z,2.43
2024-04-12T15:03:35.662Z,3.10
2024-04-12T15:06:21.079Z,2.90
2024-04-12T15:09:06.575Z,2.63
2024-04-12T15:11:52.080Z,3.00
2024-04-12T15:14:39.746Z,2.20
2024-04-12T15:17:28.449Z,2.60
2024-04-12T15:20:14.006Z,2.43
2024-04-12T15:22:59.626Z,2.63
2024-04-12T15:25:45.146Z,3.57
2024-04-12T15:28:30.896Z,3.00
2024-04-12T15:31:16.251Z,3.20
2024-04-12T15:34:04.410Z,3.23
2024-04-12T15:36:50.297Z,3.10
2024-04-12T15:39:36.007Z,2.90
2024-04-12T15:42:21.644Z,2.50
2024-04-12T15:45:07.065Z,2.60
2024-04-12T15:47:34.241Z,3.07
2024-04-12T15:53:19.694Z,2.30
2024-04-12T15:56:20.459Z,3.10
2024-04-12T15:59:06.633Z,2.37
2024-04-12T16:01:52.453Z,2.70
2024-04-12T16:04:38.224Z,2.03
2024-04-12T16:07:24.256Z,2.33
2024-04-12T16:10:12.276Z,2.00
2024-04-12T16:12:42.068Z,2.03
2024-04-12T16:15:11.821Z,2.33
2024-04-12T16:17:42.924Z,1.90
2024-04-12T16:20:10.675Z,2.40
2024-04-12T16:22:40.346Z,1.83
2024-04-12T16:25:10.138Z,2.40
2024-04-12T16:27:40.483Z,2.53
2024-04-12T16:30:08.073Z,2.50
2024-04-12T16:32:37.896Z,2.60
2024-04-12T16:35:06.370Z,2.33
2024-04-12T16:37:36.029Z,2.80
2024-04-12T16:40:03.529Z,2.50
2024-04-12T16:42:35.812Z,2.47
2024-04-12T16:45:02.904Z,2.20
2024-04-12T16:47:33.218Z,2.10
2024-04-12T16:50:02.676Z,2.10
2024-04-12T16:52:32.369Z,3.43
2024-04-12T16:54:59.441Z,1.97
2024-04-12T16:57:29.177Z,2.17
2024-04-12T16:59:58.950Z,1.80
2024-04-12T17:02:28.696Z,1.70
2024-04-12T17:04:55.810Z,1.90
2024-04-12T17:07:25.586Z,1.90
2024-04-12T17:09:52.768Z,1.70
2024-04-12T17:12:22.506Z,1.60
2024-04-12T17:14:49.695Z,1.90
2024-04-12T17:17:22.078Z,1.67
2024-04-12T17:19:49.184Z,1.80
2024-04-12T17:22:18.909Z,1.70
2024-04-12T17:24:48.163Z,2.17
2024-04-12T17:27:18.042Z,1.80
2024-04-12T17:29:50.739Z,2.07
2024-04-12T17:32:23.334Z,1.87
2024-04-12T17:34:51.541Z,2.03
2024-04-12T17:37:21.443Z,1.50
2024-04-12T17:39:49.946Z,1.83
2024-04-12T17:42:19.762Z,1.77
2024-04-12T17:44:46.965Z,2.10
2024-04-12T17:47:16.808Z,1.70
2024-04-12T17:49:46.487Z,1.63
2024-04-12T17:52:16.170Z,1.70
2024-04-12T17:54:43.210Z,1.70
2024-04-12T17:57:13.925Z,1.80
2024-04-12T17:59:41.090Z,1.97
2024-04-12T18:02:10.823Z,2.20
2024-04-12T18:04:38.373Z,1.80
2024-04-12T18:07:10.697Z,2.17
2024-04-12T18:09:37.789Z,1.70
2024-04-12T18:12:08.968Z,1.87
2024-04-12T18:14:36.189Z,1.43
2024-04-12T18:17:06.043Z,2.23
2024-04-12T18:19:33.147Z,2.03
2024-04-12T18:22:03.062Z,1.83
2024-04-12T18:24:32.863Z,2.27
2024-04-12T18:27:02.761Z,2.20
2024-04-12T18:29:29.852Z,2.37
2024-04-12T18:32:04.165Z,3.00
2024-04-12T18:34:31.265Z,2.63
2024-04-12T18:37:35.533Z,1.80
2024-04-12T18:40:24.571Z,2.70
2024-04-12T18:43:11.207Z,1.90
2024-04-12T18:45:40.888Z,2.00
2024-04-12T18:48:08.480Z,2.30
2024-04-12T18:50:39.176Z,2.13
2024-04-12T18:53:09.130Z,2.33
2024-04-12T18:55:38.946Z,2.33
2024-04-12T18:58:08.915Z,2.13
2024-04-12T19:00:36.059Z,2.90
2024-04-12T19:03:09.837Z,3.80
2024-04-12T19:05:39.464Z,2.67
2024-04-12T19:08:09.662Z,2.40
2024-04-12T19:10:41.260Z,2.40
2024-04-12T19:13:11.135Z,2.30
2024-04-12T19:15:40.201Z,2.20
2024-04-12T19:18:11.132Z,2.90
2024-04-12T19:20:41.595Z,2.90
2024-04-12T19:23:11.476Z,2.73
2024-04-12T19:25:41.182Z,2.40
2024-04-12T19:28:10.940Z,2.60
2024-04-12T19:30:38.132Z,2.70
2024-04-12T19:33:09.054Z,2.80
2024-04-12T19:35:36.301Z,3.50
2024-04-12T19:38:08.391Z,2.10
2024-04-12T19:40:39.125Z,2.50
2024-04-12T19:43:11.453Z,2.80
2024-04-12T19:45:47.614Z,2.73
2024-04-12T19:48:17.416Z,3.27
2024-04-12T19:50:44.669Z,3.50
2024-04-12T19:53:14.419Z,2.90
2024-04-12T19:55:41.480Z,3.20
2024-04-12T19:58:13.776Z,2.60
2024-04-12T20:00:40.830Z,3.20
2024-04-12T20:03:10.642Z,3.50
2024-04-12T20:05:37.709Z,4.17
2024-04-12T20:08:08.440Z,3.90
2024-04-12T20:10:35.510Z,4.53
2024-04-12T20:13:05.634Z,4.00
2024-04-12T20:15:35.431Z,4.57
2024-04-12T20:18:06.053Z,4.37
2024-04-12T20:20:33.262Z,4.40
2024-04-12T20:23:03.783Z,4.60
2024-04-12T20:25:31.373Z,4.80
2024-04-12T20:28:01.988Z,5.27
2024-04-12T20:30:43.537Z,4.83
2024-04-12T20:33:24.022Z,5.17
2024-04-12T20:35:57.852Z,5.67
2024-04-12T20:38:27.521Z,5.70
2024-04-12T20:40:59.232Z,6.60
2024-04-12T20:43:28.911Z,6.67
2024-04-12T20:45:58.169Z,6.03
2024-04-12T20:48:30.466Z,6.47
2024-04-12T20:51:01.203Z,6.27
2024-04-12T20:53:32.185Z,5.60
2024-04-12T20:55:59.300Z,5.77
2024-04-12T20:58:28.946Z,6.33
2024-04-12T21:01:01.550Z,6.20
2024-04-12T21:03:34.677Z,8.00
2024-04-12T21:06:02.671Z,5.93
2024-04-12T21:08:32.483Z,7.40
2024-04-12T21:11:12.342Z,7.90
2024-04-12T21:13:48.167Z,9.60
2024-04-12T21:16:15.299Z,7.30
2024-04-12T21:18:48.436Z,7.67
2024-04-12T21:21:17.458Z,6.70
2024-04-12T21:23:47.424Z,7.10
2024-04-12T21:26:14.497Z,6.83
2024-04-12T21:28:44.239Z,6.60
2024-04-12T21:31:11.343Z,7.37
2024-04-12T21:33:41.125Z,6.50
2024-04-12T21:36:11.753Z,7.50
2024-04-12T21:38:42.502Z,7.53
2024-04-12T21:41:10.714Z,6.27
2024-04-12T21:43:41.507Z,6.87
2024-04-12T21:46:10.694Z,6.80
2024-04-12T21:48:41.757Z,6.30
2024-04-12T21:51:12.943Z,6.60
2024-04-12T21:53:43.817Z,8.03
2024-04-12T21:56:12.381Z,7.07
2024-04-12T21:58:42.354Z,6.40
2024-04-12T22:01:11.556Z,6.83
2024-04-12T22:03:42.094Z,7.17
2024-04-12T22:06:12.624Z,6.30
2024-04-12T22:08:44.172Z,6.07
2024-04-12T22:11:11.680Z,6.67
2024-04-12T22:13:42.396Z,6.20
2024-04-12T22:16:10.974Z,6.50
2024-04-12T22:18:42.541Z,6.60
2024-04-12T22:21:13.657Z,7.47
2024-04-12T22:23:44.892Z,6.80
2024-04-12T22:26:14.144Z,7.07
2024-04-12T22:28:45.331Z,7.27
2024-04-12T22:31:16.193Z,6.30
2024-04-12T22:33:48.051Z,8.00
2024-04-12T22:36:20.009Z,6.93
2024-04-12T22:38:50.343Z,7.30
2024-04-12T22:41:18.210Z,6.93
2024-04-12T22:43:48.246Z,6.70
2024-04-12T22:46:15.768Z,7.60
2024-04-12T22:48:47.294Z,6.73
2024-04-12T22:51:25.032Z,6.73
2024-04-12T22:53:55.816Z,6.80
2024-04-12T22:56:26.041Z,6.93
2024-04-12T22:59:00.401Z,7.77
2024-04-12T23:01:28.282Z,7.50
2024-04-12T23:03:58.643Z,6.87
2024-04-12T23:06:29.301Z,6.10
2024-04-12T23:08:59.044Z,7.13
2024-04-12T23:11:26.193Z,7.50
2024-04-12T23:13:56.173Z,6.20
2024-04-12T23:16:23.284Z,6.67
2024-04-12T23:18:55.564Z,6.30
2024-04-12T23:21:22.685Z,6.60
2024-04-12T23:23:54.968Z,6.13
2024-04-12T23:26:22.094Z,6.90
2024-04-12T23:28:51.755Z,6.23
2024-04-12T23:31:19.004Z,7.40
2024-04-12T23:33:49.328Z,6.93
2024-04-12T23:36:16.641Z,6.40
2024-04-12T23:38:46.292Z,6.43
2024-04-12T23:41:15.939Z,6.30
2024-04-12T23:43:45.815Z,6.50
2024-04-12T23:46:16.128Z,6.00
2024-04-12T23:48:47.138Z,5.80
2024-04-12T23:51:14.292Z,6.13
2024-04-12T23:53:43.971Z,6.50
2024-04-12T23:56:11.041Z,6.40
2024-04-12T23:58:43.320Z,6.97
